sensor_id;sensor_type;location;lat;lon;timestamp;P1;durP1;ratioP1;P2;durP2;ratioP2
74241;SDS011;62599;49.146;10.426;2022-11-20T00:00:37;2.83;;;2.30;;
74241;SDS011;62599;49.146;10.426;2022-11-20T00:03:02;1.02;;;1.02;;
74241;SDS011;62599;49.146;10.426;2022-11-20T00:05:32;2.53;;;1.70;;
74241;SDS011;62599;49.146;10.426;2022-11-20T00:07:58;5.45;;;2.13;;
74241;SDS011;62599;49.146;10.426;2022-11-20T00:10:23;2.87;;;2.67;;
74241;SDS011;62599;49.146;10.426;2022-11-20T00:12:48;4.73;;;3.53;;
74241;SDS011;62599;49.146;10.426;2022-11-20T00:15:14;9.33;;;2.77;;
74241;SDS011;62599;49.146;10.426;2022-11-20T00:17:39;6.88;;;2.88;;
74241;SDS011;62599;49.146;10.426;2022-11-20T00:20:05;3.83;;;1.98;;
74241;SDS011;62599;49.146;10.426;2022-11-20T00:22:31;4.22;;;3.00;;
74241;SDS011;62599;49.146;10.426;2022-11-20T00:24:56;0.93;;;0.93;;
74241;SDS011;62599;49.146;10.426;2022-11-20T00:27:22;1.67;;;1.58;;
74241;SDS011;62599;49.146;10.426;2022-11-20T00:29:48;6.35;;;2.33;;
74241;SDS011;62599;49.146;10.426;2022-11-20T00:32:13;3.73;;;1.73;;
74241;SDS011;62599;49.146;10.426;2022-11-20T00:34:39;6.13;;;1.90;;
74241;SDS011;62599;49.146;10.426;2022-11-20T00:37:04;3.53;;;2.37;;
74241;SDS011;62599;49.146;10.426;2022-11-20T00:39:29;3.40;;;1.67;;
74241;SDS011;62599;49.146;10.426;2022-11-20T00:41:55;7.63;;;2.27;;
74241;SDS011;62599;49.146;10.426;2022-11-20T00:44:20;3.03;;;2.27;;
74241;SDS011;62599;49.146;10.426;2022-11-20T00:46:45;3.27;;;1.27;;
74241;SDS011;62599;49.146;10.426;2022-11-20T00:49:11;2.73;;;2.63;;
74241;SDS011;62599;49.146;10.426;2022-11-20T00:51:36;5.10;;;3.13;;
74241;SDS011;62599;49.146;10.426;2022-11-20T00:54:02;4.27;;;1.63;;
74241;SDS011;62599;49.146;10.426;2022-11-20T00:56:27;2.55;;;1.48;;
74241;SDS011;62599;49.146;10.426;2022-11-20T00:58:53;3.75;;;2.17;;
74241;SDS011;62599;49.146;10.426;2022-11-20T01:01:20;2.78;;;2.17;;
74241;SDS011;62599;49.146;10.426;2022-11-20T01:03:50;3.15;;;2.90;;
74241;SDS011;62599;49.146;10.426;2022-11-20T01:06:18;3.92;;;2.78;;
74241;SDS011;62599;49.146;10.426;2022-11-20T01:08:44;2.63;;;1.70;;
74241;SDS011;62599;49.146;10.426;2022-11-20T01:11:11;11.63;;;4.63;;
74241;SDS011;62599;49.146;10.426;2022-11-20T01:13:39;5.43;;;2.47;;
74241;SDS011;62599;49.146;10.426;2022-11-20T01:18:43;5.78;;;3.33;;
74241;SDS011;62599;49.146;10.426;2022-11-20T01:21:11;4.75;;;4.00;;
74241;SDS011;62599;49.146;10.426;2022-11-20T01:23:39;3.92;;;2.40;;
74241;SDS011;62599;49.146;10.426;2022-11-20T01:26:07;6.60;;;3.25;;
74241;SDS011;62599;49.146;10.426;2022-11-20T01:28:35;4.93;;;3.38;;
74241;SDS011;62599;49.146;10.426;2022-11-20T01:31:01;5.43;;;3.35;;
74241;SDS011;62599;49.146;10.426;2022-11-20T01:33:35;6.80;;;3.22;;
74241;SDS011;62599;49.146;10.426;2022-11-20T01:36:04;6.70;;;2.50;;
74241;SDS011;62599;49.146;10.426;2022-11-20T01:38:30;4.60;;;2.78;;
74241;SDS011;62599;49.146;10.426;2022-11-20T01:40:56;4.03;;;2.97;;
74241;SDS011;62599;49.146;10.426;2022-11-20T01:43:22;4.18;;;2.47;;
74241;SDS011;62599;49.146;10.426;2022-11-20T01:48:30;7.15;;;2.85;;
74241;SDS011;62599;49.146;10.426;2022-11-20T01:51:01;4.57;;;3.08;;
74241;SDS011;62599;49.146;10.426;2022-11-20T01:53:30;3.78;;;3.00;;
74241;SDS011;62599;49.146;10.426;2022-11-20T01:56:00;2.72;;;2.10;;
74241;SDS011;62599;49.146;10.426;2022-11-20T01:58:30;4.82;;;3.67;;
74241;SDS011;62599;49.146;10.426;2022-11-20T02:00:59;9.35;;;3.60;;
74241;SDS011;62599;49.146;10.426;2022-11-20T02:03:25;3.50;;;2.47;;
74241;SDS011;62599;49.146;10.426;2022-11-20T02:05:52;6.28;;;3.03;;
74241;SDS011;62599;49.146;10.426;2022-11-20T02:08:24;5.47;;;2.90;;
74241;SDS011;62599;49.146;10.426;2022-11-20T02:10:49;5.85;;;3.17;;
74241;SDS011;62599;49.146;10.426;2022-11-20T02:13:15;4.78;;;2.58;;
74241;SDS011;62599;49.146;10.426;2022-11-20T02:15:59;4.80;;;3.03;;
74241;SDS011;62599;49.146;10.426;2022-11-20T02:18:26;5.68;;;3.83;;
74241;SDS011;62599;49.146;10.426;2022-11-20T02:20:57;12.60;;;6.18;;
74241;SDS011;62599;49.146;10.426;2022-11-20T02:23:39;10.13;;;3.78;;
74241;SDS011;62599;49.146;10.426;2022-11-20T02:28:52;4.50;;;3.70;;
74241;SDS011;62599;49.146;10.426;2022-11-20T02:31:19;3.05;;;2.65;;
74241;SDS011;62599;49.146;10.426;2022-11-20T02:33:44;6.83;;;2.93;;
74241;SDS011;62599;49.146;10.426;2022-11-20T02:36:11;3.78;;;3.20;;
74241;SDS011;62599;49.146;10.426;2022-11-20T02:38:40;3.78;;;1.77;;
74241;SDS011;62599;49.146;10.426;2022-11-20T02:41:06;5.03;;;3.50;;
74241;SDS011;62599;49.146;10.426;2022-11-20T02:43:32;3.40;;;2.17;;
74241;SDS011;62599;49.146;10.426;2022-11-20T02:45:57;7.65;;;2.65;;
74241;SDS011;62599;49.146;10.426;2022-11-20T02:48:23;2.63;;;1.73;;
74241;SDS011;62599;49.146;10.426;2022-11-20T02:50:48;4.17;;;2.67;;
74241;SDS011;62599;49.146;10.426;2022-11-20T02:53:13;4.90;;;2.90;;
74241;SDS011;62599;49.146;10.426;2022-11-20T02:55:39;5.67;;;2.53;;
74241;SDS011;62599;49.146;10.426;2022-11-20T02:58:04;4.43;;;3.60;;
74241;SDS011;62599;49.146;10.426;2022-11-20T03:00:30;4.03;;;2.83;;
74241;SDS011;62599;49.146;10.426;2022-11-20T03:02:55;7.78;;;2.58;;
74241;SDS011;62599;49.146;10.426;2022-11-20T03:05:20;4.83;;;3.20;;
74241;SDS011;62599;49.146;10.426;2022-11-20T03:07:46;2.85;;;1.77;;
74241;SDS011;62599;49.146;10.426;2022-11-20T03:10:11;5.50;;;2.67;;
74241;SDS011;62599;49.146;10.426;2022-11-20T03:12:37;4.57;;;3.08;;
74241;SDS011;62599;49.146;10.426;2022-11-20T03:15:02;4.50;;;2.67;;
74241;SDS011;62599;49.146;10.426;2022-11-20T03:17:28;4.53;;;2.65;;
74241;SDS011;62599;49.146;10.426;2022-11-20T03:19:54;6.05;;;2.38;;
74241;SDS011;62599;49.146;10.426;2022-11-20T03:22:20;7.13;;;3.90;;
74241;SDS011;62599;49.146;10.426;2022-11-20T03:24:45;6.67;;;3.17;;
74241;SDS011;62599;49.146;10.426;2022-11-20T03:27:11;6.55;;;3.35;;
74241;SDS011;62599;49.146;10.426;2022-11-20T03:29:36;5.07;;;2.50;;
74241;SDS011;62599;49.146;10.426;2022-11-20T03:32:01;4.23;;;3.10;;
74241;SDS011;62599;49.146;10.426;2022-11-20T03:34:27;9.17;;;4.87;;
74241;SDS011;62599;49.146;10.426;2022-11-20T03:36:52;6.80;;;3.93;;
74241;SDS011;62599;49.146;10.426;2022-11-20T03:39:17;6.40;;;3.10;;
74241;SDS011;62599;49.146;10.426;2022-11-20T03:41:43;11.57;;;3.20;;
74241;SDS011;62599;49.146;10.426;2022-11-20T03:44:09;5.50;;;3.58;;
74241;SDS011;62599;49.146;10.426;2022-11-20T03:46:36;4.45;;;2.35;;
74241;SDS011;62599;49.146;10.426;2022-11-20T03:49:02;6.18;;;3.55;;
74241;SDS011;62599;49.146;10.426;2022-11-20T03:51:32;6.82;;;4.20;;
74241;SDS011;62599;49.146;10.426;2022-11-20T03:53:59;5.05;;;3.50;;
74241;SDS011;62599;49.146;10.426;2022-11-20T03:56:30;6.30;;;4.10;;
74241;SDS011;62599;49.146;10.426;2022-11-20T03:58:57;5.72;;;4.40;;
74241;SDS011;62599;49.146;10.426;2022-11-20T04:01:34;7.13;;;4.40;;
74241;SDS011;62599;49.146;10.426;2022-11-20T04:04:02;9.10;;;5.15;;
74241;SDS011;62599;49.146;10.426;2022-11-20T04:06:36;5.68;;;3.17;;
74241;SDS011;62599;49.146;10.426;2022-11-20T04:09:02;7.57;;;3.78;;
74241;SDS011;62599;49.146;10.426;2022-11-20T04:11:29;6.00;;;4.00;;
74241;SDS011;62599;49.146;10.426;2022-11-20T04:13:59;5.18;;;3.05;;
74241;SDS011;62599;49.146;10.426;2022-11-20T04:16:28;16.70;;;6.10;;
74241;SDS011;62599;49.146;10.426;2022-11-20T04:18:55;9.77;;;5.78;;
74241;SDS011;62599;49.146;10.426;2022-11-20T04:21:23;8.70;;;4.63;;
74241;SDS011;62599;49.146;10.426;2022-11-20T04:23:50;6.50;;;4.47;;
74241;SDS011;62599;49.146;10.426;2022-11-20T04:26:17;7.68;;;4.72;;
74241;SDS011;62599;49.146;10.426;2022-11-20T04:28:43;12.93;;;5.57;;
74241;SDS011;62599;49.146;10.426;2022-11-20T04:31:10;5.83;;;3.30;;
74241;SDS011;62599;49.146;10.426;2022-11-20T04:33:44;10.13;;;5.22;;
74241;SDS011;62599;49.146;10.426;2022-11-20T04:36:10;6.25;;;3.33;;
74241;SDS011;62599;49.146;10.426;2022-11-20T04:38:37;10.43;;;5.55;;
74241;SDS011;62599;49.146;10.426;2022-11-20T04:41:04;9.15;;;4.03;;
74241;SDS011;62599;49.146;10.426;2022-11-20T04:43:31;11.93;;;6.25;;
74241;SDS011;62599;49.146;10.426;2022-11-20T04:45:57;5.40;;;3.42;;
74241;SDS011;62599;49.146;10.426;2022-11-20T04:48:24;8.25;;;4.68;;
74241;SDS011;62599;49.146;10.426;2022-11-20T04:50:50;9.27;;;5.28;;
74241;SDS011;62599;49.146;10.426;2022-11-20T04:53:16;4.97;;;3.25;;
74241;SDS011;62599;49.146;10.426;2022-11-20T04:55:42;9.73;;;3.75;;
74241;SDS011;62599;49.146;10.426;2022-11-20T04:58:08;5.97;;;3.25;;
74241;SDS011;62599;49.146;10.426;2022-11-20T05:00:33;7.57;;;4.47;;
74241;SDS011;62599;49.146;10.426;2022-11-20T05:02:59;11.38;;;4.68;;
74241;SDS011;62599;49.146;10.426;2022-11-20T05:05:24;10.18;;;4.93;;
74241;SDS011;62599;49.146;10.426;2022-11-20T05:07:49;6.93;;;4.10;;
74241;SDS011;62599;49.146;10.426;2022-11-20T05:10:15;7.63;;;3.80;;
74241;SDS011;62599;49.146;10.426;2022-11-20T05:12:40;6.25;;;4.22;;
74241;SDS011;62599;49.146;10.426;2022-11-20T05:15:06;8.10;;;5.13;;
74241;SDS011;62599;49.146;10.426;2022-11-20T05:17:32;8.80;;;4.95;;
74241;SDS011;62599;49.146;10.426;2022-11-20T05:19:57;5.95;;;4.30;;
74241;SDS011;62599;49.146;10.426;2022-11-20T05:22:22;5.10;;;3.10;;
74241;SDS011;62599;49.146;10.426;2022-11-20T05:24:48;6.70;;;3.97;;
74241;SDS011;62599;49.146;10.426;2022-11-20T05:27:13;10.33;;;4.13;;
74241;SDS011;62599;49.146;10.426;2022-11-20T05:29:39;6.13;;;4.13;;
74241;SDS011;62599;49.146;10.426;2022-11-20T05:32:04;7.23;;;4.73;;
74241;SDS011;62599;49.146;10.426;2022-11-20T05:34:32;6.72;;;3.85;;
74241;SDS011;62599;49.146;10.426;2022-11-20T05:36:57;10.63;;;4.68;;
74241;SDS011;62599;49.146;10.426;2022-11-20T05:39:23;6.32;;;4.22;;
74241;SDS011;62599;49.146;10.426;2022-11-20T05:41:48;7.03;;;4.00;;
74241;SDS011;62599;49.146;10.426;2022-11-20T05:44:33;4.88;;;3.33;;
74241;SDS011;62599;49.146;10.426;2022-11-20T05:46:59;3.27;;;2.17;;
74241;SDS011;62599;49.146;10.426;2022-11-20T05:49:24;9.13;;;3.33;;
74241;SDS011;62599;49.146;10.426;2022-11-20T05:51:50;3.27;;;1.60;;
74241;SDS011;62599;49.146;10.426;2022-11-20T05:54:15;4.20;;;2.87;;
74241;SDS011;62599;49.146;10.426;2022-11-20T05:56:40;2.97;;;2.42;;
74241;SDS011;62599;49.146;10.426;2022-11-20T05:59:06;3.07;;;2.53;;
74241;SDS011;62599;49.146;10.426;2022-11-20T06:01:31;2.75;;;2.20;;
74241;SDS011;62599;49.146;10.426;2022-11-20T06:03:56;2.97;;;2.20;;
74241;SDS011;62599;49.146;10.426;2022-11-20T06:06:22;4.20;;;2.33;;
74241;SDS011;62599;49.146;10.426;2022-11-20T06:08:48;2.63;;;2.22;;
74241;SDS011;62599;49.146;10.426;2022-11-20T06:11:14;5.20;;;2.92;;
74241;SDS011;62599;49.146;10.426;2022-11-20T06:13:40;3.10;;;2.75;;
74241;SDS011;62599;49.146;10.426;2022-11-20T06:16:06;3.03;;;2.03;;
74241;SDS011;62599;49.146;10.426;2022-11-20T06:18:31;4.45;;;3.53;;
74241;SDS011;62599;49.146;10.426;2022-11-20T06:21:01;2.88;;;2.10;;
74241;SDS011;62599;49.146;10.426;2022-11-20T06:23:29;2.75;;;2.22;;
74241;SDS011;62599;49.146;10.426;2022-11-20T06:25:56;2.63;;;2.03;;
74241;SDS011;62599;49.146;10.426;2022-11-20T06:28:21;4.77;;;2.87;;
74241;SDS011;62599;49.146;10.426;2022-11-20T06:30:47;1.65;;;1.42;;
74241;SDS011;62599;49.146;10.426;2022-11-20T06:33:12;2.00;;;1.83;;
74241;SDS011;62599;49.146;10.426;2022-11-20T06:35:37;7.10;;;2.73;;
74241;SDS011;62599;49.146;10.426;2022-11-20T06:38:03;4.70;;;2.78;;
74241;SDS011;62599;49.146;10.426;2022-11-20T06:40:28;5.23;;;3.33;;
74241;SDS011;62599;49.146;10.426;2022-11-20T06:42:54;3.60;;;2.27;;
74241;SDS011;62599;49.146;10.426;2022-11-20T06:45:19;3.67;;;2.67;;
74241;SDS011;62599;49.146;10.426;2022-11-20T06:47:48;11.52;;;2.72;;
74241;SDS011;62599;49.146;10.426;2022-11-20T06:50:17;2.63;;;2.42;;
74241;SDS011;62599;49.146;10.426;2022-11-20T06:52:42;3.73;;;2.57;;
74241;SDS011;62599;49.146;10.426;2022-11-20T06:55:07;3.60;;;1.80;;
74241;SDS011;62599;49.146;10.426;2022-11-20T06:57:36;2.63;;;2.35;;
74241;SDS011;62599;49.146;10.426;2022-11-20T07:00:02;2.83;;;2.25;;
74241;SDS011;62599;49.146;10.426;2022-11-20T07:02:30;7.50;;;2.92;;
74241;SDS011;62599;49.146;10.426;2022-11-20T07:04:55;3.43;;;2.27;;
74241;SDS011;62599;49.146;10.426;2022-11-20T07:07:21;2.83;;;2.15;;
74241;SDS011;62599;49.146;10.426;2022-11-20T07:09:46;8.57;;;1.48;;
74241;SDS011;62599;49.146;10.426;2022-11-20T07:12:12;2.97;;;2.30;;
74241;SDS011;62599;49.146;10.426;2022-11-20T07:14:37;2.70;;;2.17;;
74241;SDS011;62599;49.146;10.426;2022-11-20T07:17:02;2.70;;;1.67;;
74241;SDS011;62599;49.146;10.426;2022-11-20T07:19:28;2.05;;;1.60;;
74241;SDS011;62599;49.146;10.426;2022-11-20T07:21:53;1.80;;;1.67;;
74241;SDS011;62599;49.146;10.426;2022-11-20T07:24:18;1.83;;;1.50;;
74241;SDS011;62599;49.146;10.426;2022-11-20T07:26:46;3.20;;;1.48;;
74241;SDS011;62599;49.146;10.426;2022-11-20T07:29:12;1.08;;;0.73;;
74241;SDS011;62599;49.146;10.426;2022-11-20T07:31:37;2.33;;;1.43;;
74241;SDS011;62599;49.146;10.426;2022-11-20T07:34:02;3.17;;;1.20;;
74241;SDS011;62599;49.146;10.426;2022-11-20T07:36:28;3.30;;;1.87;;
74241;SDS011;62599;49.146;10.426;2022-11-20T07:38:53;2.67;;;1.87;;
74241;SDS011;62599;49.146;10.426;2022-11-20T07:41:19;3.63;;;2.85;;
74241;SDS011;62599;49.146;10.426;2022-11-20T07:43:44;1.00;;;0.60;;
74241;SDS011;62599;49.146;10.426;2022-11-20T07:46:10;4.53;;;3.10;;
74241;SDS011;62599;49.146;10.426;2022-11-20T07:48:35;2.50;;;1.80;;
74241;SDS011;62599;49.146;10.426;2022-11-20T07:51:01;5.35;;;2.20;;
74241;SDS011;62599;49.146;10.426;2022-11-20T07:53:26;3.10;;;2.45;;
74241;SDS011;62599;49.146;10.426;2022-11-20T07:55:51;4.97;;;2.27;;
74241;SDS011;62599;49.146;10.426;2022-11-20T07:58:17;4.63;;;2.75;;
74241;SDS011;62599;49.146;10.426;2022-11-20T08:00:44;8.85;;;2.03;;
74241;SDS011;62599;49.146;10.426;2022-11-20T08:03:09;3.70;;;1.80;;
74241;SDS011;62599;49.146;10.426;2022-11-20T08:05:38;1.92;;;1.25;;
74241;SDS011;62599;49.146;10.426;2022-11-20T08:08:03;3.17;;;2.13;;
74241;SDS011;62599;49.146;10.426;2022-11-20T08:10:28;1.92;;;1.45;;
74241;SDS011;62599;49.146;10.426;2022-11-20T08:12:54;1.52;;;0.82;;
74241;SDS011;62599;49.146;10.426;2022-11-20T08:15:39;3.15;;;1.80;;
74241;SDS011;62599;49.146;10.426;2022-11-20T08:18:05;2.00;;;1.80;;
74241;SDS011;62599;49.146;10.426;2022-11-20T08:20:33;2.80;;;1.88;;
74241;SDS011;62599;49.146;10.426;2022-11-20T08:23:00;2.17;;;1.27;;
74241;SDS011;62599;49.146;10.426;2022-11-20T08:25:27;1.70;;;1.48;;
74241;SDS011;62599;49.146;10.426;2022-11-20T08:28:00;1.35;;;1.25;;
74241;SDS011;62599;49.146;10.426;2022-11-20T08:30:27;2.00;;;1.83;;
74241;SDS011;62599;49.146;10.426;2022-11-20T08:32:53;2.40;;;2.10;;
74241;SDS011;62599;49.146;10.426;2022-11-20T08:35:19;1.95;;;0.88;;
74241;SDS011;62599;49.146;10.426;2022-11-20T08:37:47;1.65;;;1.30;;
74241;SDS011;62599;49.146;10.426;2022-11-20T08:40:13;1.75;;;1.63;;
74241;SDS011;62599;49.146;10.426;2022-11-20T08:42:46;5.40;;;1.70;;
74241;SDS011;62599;49.146;10.426;2022-11-20T08:45:12;3.60;;;2.38;;
74241;SDS011;62599;49.146;10.426;2022-11-20T08:47:38;4.10;;;1.95;;
74241;SDS011;62599;49.146;10.426;2022-11-20T08:50:03;2.33;;;1.43;;
74241;SDS011;62599;49.146;10.426;2022-11-20T08:52:28;2.38;;;1.52;;
74241;SDS011;62599;49.146;10.426;2022-11-20T08:54:54;2.63;;;1.40;;
74241;SDS011;62599;49.146;10.426;2022-11-20T08:57:19;4.50;;;2.17;;
74241;SDS011;62599;49.146;10.426;2022-11-20T08:59:44;1.50;;;1.20;;
74241;SDS011;62599;49.146;10.426;2022-11-20T09:02:12;1.60;;;1.45;;
74241;SDS011;62599;49.146;10.426;2022-11-20T09:04:37;2.57;;;1.67;;
74241;SDS011;62599;49.146;10.426;2022-11-20T09:07:03;1.52;;;1.00;;
74241;SDS011;62599;49.146;10.426;2022-11-20T09:09:28;7.03;;;1.70;;
74241;SDS011;62599;49.146;10.426;2022-11-20T09:11:54;2.80;;;1.70;;
74241;SDS011;62599;49.146;10.426;2022-11-20T09:14:19;1.27;;;1.03;;
74241;SDS011;62599;49.146;10.426;2022-11-20T09:16:45;1.38;;;0.90;;
74241;SDS011;62599;49.146;10.426;2022-11-20T09:19:11;4.97;;;2.53;;
74241;SDS011;62599;49.146;10.426;2022-11-20T09:21:36;2.72;;;2.05;;
74241;SDS011;62599;49.146;10.426;2022-11-20T09:24:02;5.65;;;2.65;;
74241;SDS011;62599;49.146;10.426;2022-11-20T09:26:28;3.42;;;2.78;;
74241;SDS011;62599;49.146;10.426;2022-11-20T09:28:53;5.93;;;3.22;;
74241;SDS011;62599;49.146;10.426;2022-11-20T09:31:22;2.85;;;2.08;;
74241;SDS011;62599;49.146;10.426;2022-11-20T09:33:49;4.53;;;2.70;;
74241;SDS011;62599;49.146;10.426;2022-11-20T09:36:15;4.72;;;2.85;;
74241;SDS011;62599;49.146;10.426;2022-11-20T09:38:44;2.55;;;1.63;;
74241;SDS011;62599;49.146;10.426;2022-11-20T09:41:19;2.08;;;1.55;;
74241;SDS011;62599;49.146;10.426;2022-11-20T09:47:31;3.55;;;2.35;;
74241;SDS011;62599;49.146;10.426;2022-11-20T09:55:39;1.70;;;1.25;;
74241;SDS011;62599;49.146;10.426;2022-11-20T09:58:13;1.95;;;1.65;;
74241;SDS011;62599;49.146;10.426;2022-11-20T10:00:44;2.85;;;2.13;;
74241;SDS011;62599;49.146;10.426;2022-11-20T10:03:16;12.18;;;5.50;;
74241;SDS011;62599;49.146;10.426;2022-11-20T10:05:50;11.45;;;2.13;;
74241;SDS011;62599;49.146;10.426;2022-11-20T10:14:16;3.25;;;2.63;;
74241;SDS011;62599;49.146;10.426;2022-11-20T10:17:03;3.05;;;2.03;;
74241;SDS011;62599;49.146;10.426;2022-11-20T10:22:33;2.40;;;1.42;;
74241;SDS011;62599;49.146;10.426;2022-11-20T10:25:03;2.97;;;2.17;;
74241;SDS011;62599;49.146;10.426;2022-11-20T10:27:40;13.00;;;1.63;;
74241;SDS011;62599;49.146;10.426;2022-11-20T10:30:26;3.88;;;2.63;;
74241;SDS011;62599;49.146;10.426;2022-11-20T10:32:54;4.47;;;2.40;;
74241;SDS011;62599;49.146;10.426;2022-11-20T10:37:58;1.60;;;1.00;;
74241;SDS011;62599;49.146;10.426;2022-11-20T10:40:41;2.88;;;1.35;;
74241;SDS011;62599;49.146;10.426;2022-11-20T10:43:13;4.45;;;2.10;;
74241;SDS011;62599;49.146;10.426;2022-11-20T10:45:52;3.58;;;2.10;;
74241;SDS011;62599;49.146;10.426;2022-11-20T10:48:23;1.73;;;1.17;;
74241;SDS011;62599;49.146;10.426;2022-11-20T10:51:13;3.40;;;2.38;;
74241;SDS011;62599;49.146;10.426;2022-11-20T10:53:56;1.58;;;1.08;;
74241;SDS011;62599;49.146;10.426;2022-11-20T11:03:07;1.05;;;0.95;;
74241;SDS011;62599;49.146;10.426;2022-11-20T11:05:10;1.38;;;1.23;;
74241;SDS011;62599;49.146;10.426;2022-11-20T11:07:38;2.05;;;1.48;;
74241;SDS011;62599;49.146;10.426;2022-11-20T11:13:06;1.55;;;1.10;;
74241;SDS011;62599;49.146;10.426;2022-11-20T11:15:37;3.13;;;1.67;;
74241;SDS011;62599;49.146;10.426;2022-11-20T11:18:04;4.03;;;2.08;;
74241;SDS011;62599;49.146;10.426;2022-11-20T11:20:33;2.45;;;1.83;;
74241;SDS011;62599;49.146;10.426;2022-11-20T11:22:59;3.70;;;1.52;;
74241;SDS011;62599;49.146;10.426;2022-11-20T11:25:35;4.00;;;2.45;;
74241;SDS011;62599;49.146;10.426;2022-11-20T11:30:46;2.45;;;1.95;;
74241;SDS011;62599;49.146;10.426;2022-11-20T11:35:49;4.63;;;3.10;;
74241;SDS011;62599;49.146;10.426;2022-11-20T11:38:37;2.10;;;1.90;;
74241;SDS011;62599;49.146;10.426;2022-11-20T11:41:05;4.68;;;2.85;;
74241;SDS011;62599;49.146;10.426;2022-11-20T11:43:35;2.03;;;1.85;;
74241;SDS011;62599;49.146;10.426;2022-11-20T11:48:55;1.90;;;1.73;;
74241;SDS011;62599;49.146;10.426;2022-11-20T11:51:23;2.97;;;2.53;;
74241;SDS011;62599;49.146;10.426;2022-11-20T11:54:11;11.98;;;4.25;;
74241;SDS011;62599;49.146;10.426;2022-11-20T11:56:41;4.85;;;3.17;;
74241;SDS011;62599;49.146;10.426;2022-11-20T11:59:09;3.40;;;2.63;;
74241;SDS011;62599;49.146;10.426;2022-11-20T12:01:44;4.43;;;1.85;;
74241;SDS011;62599;49.146;10.426;2022-11-20T12:04:40;2.45;;;1.15;;
74241;SDS011;62599;49.146;10.426;2022-11-20T12:12:48;2.67;;;1.58;;
74241;SDS011;62599;49.146;10.426;2022-11-20T12:15:26;4.45;;;2.42;;
74241;SDS011;62599;49.146;10.426;2022-11-20T12:17:55;2.63;;;1.40;;
74241;SDS011;62599;49.146;10.426;2022-11-20T12:20:22;4.53;;;2.60;;
74241;SDS011;62599;49.146;10.426;2022-11-20T12:25:30;2.90;;;2.38;;
74241;SDS011;62599;49.146;10.426;2022-11-20T12:31:26;9.00;;;3.28;;
74241;SDS011;62599;49.146;10.426;2022-11-20T12:36:19;4.75;;;3.15;;
74241;SDS011;62599;49.146;10.426;2022-11-20T12:47:47;3.58;;;2.25;;
74241;SDS011;62599;49.146;10.426;2022-11-20T12:50:40;3.50;;;2.38;;
74241;SDS011;62599;49.146;10.426;2022-11-20T12:58:43;1.85;;;1.67;;
74241;SDS011;62599;49.146;10.426;2022-11-20T13:07:11;2.15;;;1.73;;
74241;SDS011;62599;49.146;10.426;2022-11-20T13:09:43;3.03;;;2.53;;
74241;SDS011;62599;49.146;10.426;2022-11-20T13:12:14;2.95;;;1.25;;
74241;SDS011;62599;49.146;10.426;2022-11-20T13:20:04;3.53;;;2.30;;
74241;SDS011;62599;49.146;10.426;2022-11-20T13:22:44;2.42;;;1.63;;
74241;SDS011;62599;49.146;10.426;2022-11-20T13:25:22;2.58;;;1.85;;
74241;SDS011;62599;49.146;10.426;2022-11-20T13:27:49;1.73;;;1.58;;
74241;SDS011;62599;49.146;10.426;2022-11-20T13:30:16;2.67;;;2.15;;
74241;SDS011;62599;49.146;10.426;2022-11-20T13:32:53;3.33;;;2.53;;
74241;SDS011;62599;49.146;10.426;2022-11-20T13:38:26;4.32;;;2.85;;
74241;SDS011;62599;49.146;10.426;2022-11-20T13:40:51;3.58;;;2.58;;
74241;SDS011;62599;49.146;10.426;2022-11-20T13:46:07;2.47;;;2.10;;
74241;SDS011;62599;49.146;10.426;2022-11-20T13:48:38;2.47;;;1.65;;
74241;SDS011;62599;49.146;10.426;2022-11-20T13:51:25;2.30;;;1.75;;
74241;SDS011;62599;49.146;10.426;2022-11-20T14:01:31;1.63;;;1.52;;
74241;SDS011;62599;49.146;10.426;2022-11-20T14:03:57;2.53;;;1.52;;
74241;SDS011;62599;49.146;10.426;2022-11-20T14:06:27;5.55;;;1.92;;
74241;SDS011;62599;49.146;10.426;2022-11-20T14:08:58;3.83;;;1.73;;
74241;SDS011;62599;49.146;10.426;2022-11-20T14:11:30;1.88;;;1.55;;
74241;SDS011;62599;49.146;10.426;2022-11-20T14:16:40;5.28;;;2.53;;
74241;SDS011;62599;49.146;10.426;2022-11-20T14:21:53;1.65;;;1.42;;
74241;SDS011;62599;49.146;10.426;2022-11-20T14:24:30;3.58;;;1.73;;
74241;SDS011;62599;49.146;10.426;2022-11-20T14:26:56;4.20;;;2.43;;
74241;SDS011;62599;49.146;10.426;2022-11-20T14:29:25;11.13;;;2.22;;
74241;SDS011;62599;49.146;10.426;2022-11-20T14:32:00;1.77;;;1.42;;
74241;SDS011;62599;49.146;10.426;2022-11-20T14:34:29;2.25;;;1.95;;
74241;SDS011;62599;49.146;10.426;2022-11-20T14:36:58;5.03;;;1.92;;
74241;SDS011;62599;49.146;10.426;2022-11-20T14:42:21;2.08;;;1.20;;
74241;SDS011;62599;49.146;10.426;2022-11-20T14:44:49;2.72;;;1.88;;
74241;SDS011;62599;49.146;10.426;2022-11-20T14:47:20;6.13;;;2.28;;
74241;SDS011;62599;49.146;10.426;2022-11-20T14:49:50;3.42;;;3.13;;
74241;SDS011;62599;49.146;10.426;2022-11-20T14:52:18;1.20;;;1.10;;
74241;SDS011;62599;49.146;10.426;2022-11-20T14:54:47;4.53;;;2.08;;
74241;SDS011;62599;49.146;10.426;2022-11-20T14:57:30;1.40;;;1.02;;
74241;SDS011;62599;49.146;10.426;2022-11-20T15:05:09;1.80;;;1.58;;
74241;SDS011;62599;49.146;10.426;2022-11-20T15:07:36;1.77;;;1.30;;
74241;SDS011;62599;49.146;10.426;2022-11-20T15:10:26;5.20;;;1.95;;
74241;SDS011;62599;49.146;10.426;2022-11-20T15:15:21;5.28;;;1.63;;
74241;SDS011;62599;49.146;10.426;2022-11-20T15:17:54;1.25;;;1.20;;
74241;SDS011;62599;49.146;10.426;2022-11-20T15:20:20;5.07;;;1.63;;
74241;SDS011;62599;49.146;10.426;2022-11-20T15:22:53;1.88;;;1.67;;
74241;SDS011;62599;49.146;10.426;2022-11-20T15:25:22;2.60;;;1.42;;
74241;SDS011;62599;49.146;10.426;2022-11-20T15:27:49;5.10;;;1.55;;
74241;SDS011;62599;49.146;10.426;2022-11-20T15:30:20;3.22;;;1.27;;
74241;SDS011;62599;49.146;10.426;2022-11-20T15:32:46;1.23;;;0.73;;
74241;SDS011;62599;49.146;10.426;2022-11-20T15:35:12;2.00;;;1.48;;
74241;SDS011;62599;49.146;10.426;2022-11-20T15:37:38;1.85;;;1.42;;
74241;SDS011;62599;49.146;10.426;2022-11-20T15:40:04;9.02;;;1.42;;
74241;SDS011;62599;49.146;10.426;2022-11-20T15:42:31;3.00;;;2.33;;
74241;SDS011;62599;49.146;10.426;2022-11-20T15:44:57;1.92;;;1.02;;
74241;SDS011;62599;49.146;10.426;2022-11-20T15:47:24;5.07;;;2.08;;
74241;SDS011;62599;49.146;10.426;2022-11-20T15:49:53;1.70;;;1.40;;
74241;SDS011;62599;49.146;10.426;2022-11-20T15:52:21;2.30;;;1.15;;
74241;SDS011;62599;49.146;10.426;2022-11-20T15:54:47;1.10;;;0.93;;
74241;SDS011;62599;49.146;10.426;2022-11-20T15:57:12;0.80;;;0.70;;
74241;SDS011;62599;49.146;10.426;2022-11-20T15:59:41;1.52;;;1.20;;
74241;SDS011;62599;49.146;10.426;2022-11-20T16:02:13;1.17;;;0.82;;
74241;SDS011;62599;49.146;10.426;2022-11-20T16:04:40;0.80;;;0.65;;
74241;SDS011;62599;49.146;10.426;2022-11-20T16:07:06;11.38;;;1.75;;
74241;SDS011;62599;49.146;10.426;2022-11-20T16:09:32;1.90;;;0.93;;
74241;SDS011;62599;49.146;10.426;2022-11-20T16:11:58;0.77;;;0.77;;
74241;SDS011;62599;49.146;10.426;2022-11-20T16:14:26;0.57;;;0.57;;
74241;SDS011;62599;49.146;10.426;2022-11-20T16:17:10;1.15;;;0.45;;
74241;SDS011;62599;49.146;10.426;2022-11-20T16:19:36;0.70;;;0.57;;
74241;SDS011;62599;49.146;10.426;2022-11-20T16:22:01;1.38;;;1.00;;
74241;SDS011;62599;49.146;10.426;2022-11-20T16:24:26;1.60;;;0.90;;
74241;SDS011;62599;49.146;10.426;2022-11-20T16:26:55;1.63;;;1.30;;
74241;SDS011;62599;49.146;10.426;2022-11-20T16:29:21;7.18;;;1.50;;
74241;SDS011;62599;49.146;10.426;2022-11-20T16:31:46;0.98;;;0.95;;
74241;SDS011;62599;49.146;10.426;2022-11-20T16:34:12;1.92;;;1.70;;